Time;durP1;ratioP1;P1;durP2;ratioP2;P2;SDS_P1;SDS_P2;PMS_P1;PMS_P2;Temp;Humidity;BMP_temperature;BMP_pressure;BME280_temperature;BME280_humidity;BME280_pressure;Samples;Min_cycle;Max_cycle;Signal;HPM_P1;HPM_P2
2022/06/29 00:00:55;;;;;;;0.10;0.10;;;;;;;22.25;50.88;101218.94;5118032;27;20501;-42
2022/06/29 00:03:21;;;;;;;0.10;0.10;;;;;;;22.26;50.78;101215.03;5125283;27;20092;-42
2022/06/29 00:05:47;;;;;;;0.10;0.10;;;;;;;22.25;50.98;101215.34;5127261;27;20043;-42
2022/06/29 00:08:14;;;;;;;0.10;0.10;;;;;;;22.26;50.83;101228.09;5126186;27;20043;-41
2022/06/29 00:10:40;;;;;;;0.10;0.10;;;;;;;22.25;50.92;101218.13;5119605;27;20482;-42
2022/06/29 00:13:06;;;;;;;0.10;0.10;;;;;;;22.25;50.98;101216.16;5126940;27;20057;-42
2022/06/29 00:15:32;;;;;;;0.10;0.10;;;;;;;22.25;50.90;101220.91;5108010;27;20173;-42
2022/06/29 00:17:57;;;;;;;0.10;0.10;;;;;;;22.24;50.84;101214.53;5126718;27;20039;-41
2022/06/29 00:20:23;;;;;;;0.10;0.10;;;;;;;22.24;50.86;101211.75;5129409;27;20043;-41
2022/06/29 00:22:49;;;;;;;0.10;0.10;;;;;;;22.25;50.99;101209.81;5134673;27;20042;-41
2022/06/29 00:25:15;;;;;;;0.10;0.10;;;;;;;22.25;50.93;101216.16;5108990;28;20046;-42
2022/06/29 00:27:41;;;;;;;0.10;0.10;;;;;;;22.26;50.96;101217.00;5108363;27;20081;-40
2022/06/29 00:30:08;;;;;;;0.10;0.10;;;;;;;22.25;51.13;101218.13;5126586;27;20043;-41
2022/06/29 00:32:33;;;;;;;0.10;0.10;;;;;;;22.25;50.87;101218.94;5110190;27;20141;-41
2022/06/29 00:34:59;;;;;;;0.15;0.15;;;;;;;22.24;50.84;101214.53;5125160;27;20110;-41
2022/06/29 00:37:26;;;;;;;0.10;0.10;;;;;;;22.26;50.91;101217.00;5107678;27;20099;-41
2022/06/29 00:39:51;;;;;;;0.10;0.10;;;;;;;22.26;51.00;101212.28;5125206;27;20130;-40
2022/06/29 00:42:17;;;;;;;0.10;0.10;;;;;;;22.25;50.99;101212.56;5124134;27;20148;-40
2022/06/29 00:44:43;;;;;;;0.10;0.10;;;;;;;22.24;50.98;101216.47;5123337;27;20047;-41
2022/06/29 00:47:09;;;;;;;0.10;0.10;;;;;;;22.25;50.86;101216.16;5125841;27;20035;-42
2022/06/29 00:49:35;;;;;;;0.10;0.10;;;;;;;22.24;50.83;101211.75;5110129;27;20053;-42
2022/06/29 00:52:06;;;;;;;0.10;0.10;;;;;;;22.26;51.11;101203.13;5129300;27;20047;-42
2022/06/29 00:54:36;;;;;;;0.10;0.10;;;;;;;22.25;51.04;101207.84;5090942;27;20058;-41
2022/06/29 00:57:06;;;;;;;0.10;0.10;;;;;;;22.26;51.01;101200.34;5123670;27;20131;-40
2022/06/29 00:59:34;;;;;;;0.10;0.10;;;;;;;22.25;51.00;101202.31;5116285;28;20179;-42
2022/06/29 01:02:00;;;;;;;;;;;;;;;22.25;51.06;101210.63;5128750;27;20483;-42
2022/06/29 01:04:26;;;;;;;0.10;0.10;;;;;;;22.25;51.00;101209.81;5126852;27;19958;-41
2022/06/29 01:06:51;;;;;;;0.10;0.10;;;;;;;22.24;51.08;101208.16;5122693;27;20096;-42
2022/06/29 01:09:18;;;;;;;0.10;0.10;;;;;;;22.25;51.01;101218.94;5125542;27;20054;-42
2022/06/29 01:11:44;;;;;;;0.10;0.10;;;;;;;22.25;51.00;101207.84;5108517;27;20071;-42
2022/06/29 01:14:15;;;;;;;0.10;0.10;;;;;;;22.26;50.98;101209.50;5128291;27;20170;-41
2022/06/29 01:16:40;;;;;;;0.10;0.10;;;;;;;22.26;50.91;101203.94;5122805;27;20089;-40
2022/06/29 01:19:06;;;;;;;0.10;0.10;;;;;;;22.25;51.04;101204.25;5131206;27;20039;-40
2022/06/29 01:21:35;;;;;;;0.10;0.10;;;;;;;22.25;51.22;101202.31;5124811;27;20051;-42
2022/06/29 01:24:01;;;;;;;0.10;0.10;;;;;;;22.24;51.07;101206.19;5102519;27;20537;-39
2022/06/29 01:26:27;;;;;;;0.10;0.10;;;;;;;22.25;51.17;101205.06;5125140;27;20390;-40
2022/06/29 01:28:53;;;;;;;0.10;0.10;;;;;;;22.25;50.99;101196.75;5104690;28;20043;-42
2022/06/29 01:31:19;;;;;;;0.10;0.10;;;;;;;22.26;51.01;101192.03;5107337;27;20047;-42
2022/06/29 01:33:46;;;;;;;0.10;0.10;;;;;;;22.25;51.11;101193.97;5125819;27;20039;-42
2022/06/29 01:36:13;;;;;;;0.10;0.10;;;;;;;22.25;51.15;101191.19;5127718;27;20078;-42
2022/06/29 01:38:39;;;;;;;0.10;0.10;;;;;;;22.25;51.18;101187.59;5123299;27;20462;-41
2022/06/29 01:41:07;;;;;;;0.10;0.10;;;;;;;22.25;51.12;101188.44;5106192;28;20064;-41
2022/06/29 01:43:34;;;;;;;0.10;0.10;;;;;;;22.25;51.12;101195.94;5110283;27;20076;-38
2022/06/29 01:46:00;;;;;;;0.10;0.10;;;;;;;22.26;51.18;101189.25;5126784;27;20480;-40
2022/06/29 01:48:26;;;;;;;0.10;0.10;;;;;;;22.25;51.04;101185.66;5106482;28;20054;-42
2022/06/29 01:50:52;;;;;;;0.10;0.10;;;;;;;22.25;51.06;101185.66;5110079;27;20036;-38
2022/06/29 01:53:17;;;;;;;0.10;0.10;;;;;;;22.25;51.07;101179.28;5129867;27;20486;-40
2022/06/29 01:55:44;;;;;;;0.10;0.10;;;;;;;22.25;51.06;101187.59;5109177;27;20071;-42
2022/06/29 01:58:10;;;;;;;0.10;0.10;;;;;;;22.25;51.20;101177.34;5107674;28;20042;-42
2022/06/29 02:00:36;;;;;;;0.10;0.10;;;;;;;22.24;51.14;101175.69;5124894;27;20192;-42
2022/06/29 02:03:02;;;;;;;0.10;0.10;;;;;;;22.26;51.20;101175.38;5129441;27;20415;-42
2022/06/29 02:05:27;;;;;;;0.10;0.10;;;;;;;22.24;51.14;101170.13;5111521;27;20073;-42
2022/06/29 02:07:53;;;;;;;0.20;0.20;;;;;;;22.25;51.15;101169.00;5126390;27;20481;-41
2022/06/29 02:10:19;;;;;;;0.10;0.10;;;;;;;22.25;50.88;101159.88;5124190;27;20071;-40
2022/06/29 02:12:44;;;;;;;0.10;0.10;;;;;;;22.25;50.80;101162.63;5122323;27;20048;-41
2022/06/29 02:15:10;;;;;;;0.10;0.10;;;;;;;22.25;51.10;101157.09;5122942;27;20039;-41
2022/06/29 02:17:36;;;;;;;0.10;0.10;;;;;;;22.25;51.29;101151.53;5123771;27;20035;-41
2022/06/29 02:20:02;;;;;;;0.10;0.10;;;;;;;22.26;51.23;101150.41;5127742;27;20054;-41
2022/06/29 02:22:28;;;;;;;0.10;0.10;;;;;;;22.25;51.15;101155.13;5124516;27;20549;-40
2022/06/29 02:24:54;;;;;;;0.10;0.10;;;;;;;22.25;51.17;101154.31;5122682;27;20046;-41
2022/06/29 02:27:19;;;;;;;0.10;0.10;;;;;;;22.25;51.23;101155.13;5125451;27;20509;-40
2022/06/29 02:29:45;;;;;;;0.10;0.10;;;;;;;22.25;51.15;101157.91;5127537;27;20039;-41
2022/06/29 02:34:56;;;;;;;0.10;0.10;;;;;;;22.24;51.17;101153.50;5106132;27;20119;-41
2022/06/29 02:37:22;;;;;;;0.15;0.15;;;;;;;22.25;51.14;101154.31;5119687;27;20044;-40
2022/06/29 02:39:48;;;;;;;0.10;0.10;;;;;;;22.24;51.32;101141.56;5124454;27;20043;-40
2022/06/29 02:42:14;;;;;;;0.10;0.10;;;;;;;22.25;51.34;101149.59;5129351;27;20388;-42
2022/06/29 02:44:40;;;;;;;0.10;0.10;;;;;;;22.24;51.27;101142.41;5125579;27;20517;-41
2022/06/29 02:47:07;;;;;;;0.10;0.10;;;;;;;22.25;51.17;101144.03;5125880;27;20059;-43
2022/06/29 02:49:33;;;;;;;0.10;0.10;;;;;;;22.25;51.24;101146.00;5126747;27;20043;-41
2022/06/29 02:51:59;;;;;;;0.10;0.10;;;;;;;22.26;51.08;101148.47;5110425;27;20469;-42
2022/06/29 02:54:25;;;;;;;0.10;0.10;;;;;;;22.25;51.22;101146.00;5109155;27;20050;-42
2022/06/29 02:56:51;;;;;;;0.10;0.10;;;;;;;22.25;51.16;101141.25;5106348;27;20523;-41
2022/06/29 02:59:17;;;;;;;0.10;0.10;;;;;;;22.26;51.21;101144.88;5108857;28;20060;-41
2022/06/29 03:01:42;;;;;;;0.10;0.10;;;;;;;22.25;51.18;101144.03;5104286;27;20454;-41
2022/06/29 03:04:08;;;;;;;0.10;0.10;;;;;;;22.25;51.09;101152.38;5126760;27;20039;-38
2022/06/29 03:06:34;;;;;;;0.10;0.10;;;;;;;22.25;51.18;101140.44;5106273;28;20446;-43
2022/06/29 03:08:59;;;;;;;0.10;0.10;;;;;;;22.25;51.24;101138.50;5123970;27;20370;-41
2022/06/29 03:11:25;;;;;;;0.10;0.10;;;;;;;22.24;51.18;101131.31;5114403;27;20296;-41
2022/06/29 03:13:51;;;;;;;0.10;0.10;;;;;;;22.24;51.34;101134.06;5127930;27;20051;-40
2022/06/29 03:16:16;;;;;;;0.10;0.10;;;;;;;22.24;51.38;101133.25;5129293;27;20043;-42
2022/06/29 03:18:42;;;;;;;0.10;0.10;;;;;;;22.25;51.33;101140.44;5124912;27;20614;-42
2022/06/29 03:21:08;;;;;;;0.10;0.10;;;;;;;22.26;51.33;101136.53;5126730;27;20039;-41
2022/06/29 03:23:33;;;;;;;0.10;0.10;;;;;;;22.24;51.09;101130.47;5113888;27;20039;-41
2022/06/29 03:25:59;;;;;;;0.10;0.10;;;;;;;22.24;51.30;101113.84;5132699;27;20039;-40
2022/06/29 03:28:25;;;;;;;0.10;0.10;;;;;;;22.25;51.32;101123.78;5124753;27;20039;-41
2022/06/29 03:30:50;;;;;;;0.10;0.10;;;;;;;22.25;51.33;101129.34;5126779;27;20039;-42
2022/06/29 03:33:16;;;;;;;0.10;0.10;;;;;;;22.26;51.26;101126.25;5128634;27;20047;-40
2022/06/29 03:35:42;;;;;;;0.10;0.10;;;;;;;22.26;51.33;101122.66;5132131;27;20050;-42
2022/06/29 03:38:07;;;;;;;0.10;0.10;;;;;;;22.25;51.38;101121.03;5127360;27;20060;-42
2022/06/29 03:40:33;;;;;;;0.10;0.10;;;;;;;22.24;51.33;101120.19;5128687;27;20473;-42
2022/06/29 03:42:59;;;;;;;0.10;0.10;;;;;;;22.26;51.28;101122.66;5126672;27;20087;-41
2022/06/29 03:45:24;;;;;;;0.10;0.10;;;;;;;22.24;51.43;101111.88;5127560;27;20057;-40
2022/06/29 03:47:50;;;;;;;0.10;0.10;;;;;;;22.24;51.31;101120.19;5104757;27;20403;-40
2022/06/29 03:50:16;;;;;;;0.10;0.10;;;;;;;22.26;51.28;101117.13;5108417;27;20058;-40
2022/06/29 03:52:42;;;;;;;0.10;0.10;;;;;;;22.25;51.41;101116.31;5104741;28;20054;-40
2022/06/29 03:55:08;;;;;;;0.10;0.10;;;;;;;22.25;51.36;101113.53;5110740;27;20044;-42
2022/06/29 03:57:34;;;;;;;0.10;0.10;;;;;;;22.25;51.23;101113.53;5133112;27;20062;-40
2022/06/29 04:00:00;;;;;;;0.10;0.10;;;;;;;22.24;51.26;101106.31;5111681;27;20045;-41
2022/06/29 04:02:25;;;;;;;0.10;0.10;;;;;;;22.25;51.26;101109.94;5103950;27;20058;-42
2022/06/29 04:04:52;;;;;;;0.10;0.10;;;;;;;22.25;51.39;101107.16;5125782;27;20146;-41
2022/06/29 04:07:18;;;;;;;0.10;0.10;;;;;;;22.25;51.39;101102.44;5108756;27;20071;-41
2022/06/29 04:09:43;;;;;;;0.10;0.10;;;;;;;22.25;51.37;101107.16;5126057;27;20043;-42
2022/06/29 04:12:09;;;;;;;0.10;0.10;;;;;;;22.25;51.38;101107.16;5135152;27;20050;-42
2022/06/29 04:14:35;;;;;;;0.10;0.10;;;;;;;22.25;51.30;101105.19;5128856;27;20413;-42
2022/06/29 04:17:01;;;;;;;0.10;0.10;;;;;;;22.24;51.43;101105.50;5127339;27;20051;-43
2022/06/29 04:19:26;;;;;;;0.10;0.10;;;;;;;22.25;51.51;101112.69;5126076;27;20397;-41
2022/06/29 04:21:53;;;;;;;0.10;0.10;;;;;;;22.24;51.32;101109.09;5129426;27;20084;-41
2022/06/29 04:24:20;;;;;;;0.10;0.10;;;;;;;22.24;51.34;101113.84;5127505;27;20070;-42
2022/06/29 04:26:45;;;;;;;0.10;0.10;;;;;;;22.24;51.29;101109.09;5120115;27;20085;-42
2022/06/29 04:29:12;;;;;;;0.10;0.10;;;;;;;22.25;51.37;101109.94;5127251;27;20427;-41
2022/06/29 04:31:37;;;;;;;0.10;0.10;;;;;;;22.23;51.33;101107.44;5092284;27;20067;-40
2022/06/29 04:34:03;;;;;;;0.10;0.10;;;;;;;22.25;51.34;101104.38;5107520;27;20047;-42
2022/06/29 04:36:29;;;;;;;0.10;0.10;;;;;;;22.25;51.32;101096.06;5126589;27;20469;-41
2022/06/29 04:38:55;;;;;;;0.10;0.10;;;;;;;22.24;51.30;101089.69;5085625;28;20409;-42
2022/06/29 04:41:21;;;;;;;0.10;0.10;;;;;;;22.23;51.36;101088.00;5126588;27;20047;-40
2022/06/29 04:43:47;;;;;;;0.10;0.10;;;;;;;22.26;51.30;101100.47;5128513;27;20081;-40
2022/06/29 04:46:20;;;;;;;0.10;0.10;;;;;;;22.25;51.28;101094.09;5111557;27;20071;-40
2022/06/29 04:48:47;;;;;;;0.10;0.10;;;;;;;22.25;51.37;101096.88;5106422;27;20153;-40
2022/06/29 04:51:13;;;;;;;0.10;0.10;;;;;;;22.24;51.44;101094.41;5123011;27;20058;-40
2022/06/29 04:53:39;;;;;;;0.10;0.10;;;;;;;22.25;51.40;101093.28;5131148;27;20047;-42
2022/06/29 04:56:05;;;;;;;0.10;0.10;;;;;;;22.24;51.43;101091.63;5124868;27;20040;-40
2022/06/29 04:58:30;;;;;;;0.10;0.10;;;;;;;22.23;51.39;101093.56;5121407;27;20550;-42
2022/06/29 05:00:56;;;;;;;0.10;0.10;;;;;;;22.23;51.47;101088.00;5125217;27;20069;-42
2022/06/29 05:03:21;;;;;;;0.10;0.10;;;;;;;22.24;51.54;101086.91;5126403;27;20397;-41
2022/06/29 05:05:47;;;;;;;0.10;0.10;;;;;;;22.24;51.44;101080.53;5126684;27;20047;-42
2022/06/29 05:08:14;;;;;;;0.10;0.10;;;;;;;22.24;51.44;101084.13;5121836;27;20097;-40
2022/06/29 05:10:41;;;;;;;0.10;0.10;;;;;;;22.24;51.41;101078.59;5124485;27;20051;-42
2022/06/29 05:13:09;;;;;;;0.10;0.10;;;;;;;22.24;51.58;101086.91;5125273;27;20075;-43
2022/06/29 05:15:35;;;;;;;0.10;0.10;;;;;;;22.24;51.46;101083.31;5111835;27;20070;-38
2022/06/29 05:18:01;;;;;;;0.10;0.10;;;;;;;22.25;51.31;101083.00;5127902;27;20091;-40
2022/06/29 05:20:27;;;;;;;0.10;0.10;;;;;;;22.23;51.34;101076.91;5109695;28;20049;-40
2022/06/29 05:22:53;;;;;;;0.10;0.10;;;;;;;22.23;51.43;101093.56;5105292;27;20077;-40
2022/06/29 05:25:19;;;;;;;0.10;0.10;;;;;;;22.23;51.33;101082.47;5122826;27;20051;-40
2022/06/29 05:27:46;;;;;;;0.10;0.10;;;;;;;22.24;51.43;101089.69;5107525;27;20130;-40
2022/06/29 05:30:12;;;;;;;0.10;0.10;;;;;;;22.23;51.56;101085.25;5104875;28;20123;-40
2022/06/29 05:32:38;;;;;;;0.10;0.10;;;;;;;22.24;51.52;101086.09;5107570;27;20097;-41
2022/06/29 05:35:04;;;;;;;0.10;0.10;;;;;;;22.24;51.38;101092.47;5124230;27;20051;-37
2022/06/29 05:37:31;;;;;;;0.10;0.10;;;;;;;22.25;51.45;101096.06;5119342;27;20063;-41
2022/06/29 05:39:56;;;;;;;0.10;0.10;;;;;;;22.24;51.37;101089.69;5125781;27;20075;-41
2022/06/29 05:42:22;;;;;;;0.10;0.10;;;;;;;22.24;51.31;101086.09;5125652;27;20043;-40
2022/06/29 05:44:48;;;;;;;0.10;0.10;;;;;;;22.24;51.35;101092.47;5130763;27;20045;-42
2022/06/29 05:47:14;;;;;;;0.10;0.10;;;;;;;22.24;51.43;101089.69;5105767;27;20443;-42
2022/06/29 05:49:41;;;;;;;0.10;0.10;;;;;;;22.24;51.34;101095.22;5121644;27;20475;-42
2022/06/29 05:52:07;;;;;;;0.10;0.10;;;;;;;22.24;51.39;101094.41;5126324;27;20039;-40
2022/06/29 05:54:33;;;;;;;0.17;0.17;;;;;;;22.24;51.39;101086.09;5121033;27;20508;-40
2022/06/29 05:56:59;;;;;;;0.10;0.10;;;;;;;22.24;51.27;101091.63;5121958;27;20067;-43
2022/06/29 05:59:24;;;;;;;0.10;0.10;;;;;;;22.24;51.32;101092.47;5109583;27;20040;-43
2022/06/29 06:01:50;;;;;;;0.10;0.10;;;;;;;22.23;51.41;101085.25;5123937;27;20047;-42
2022/06/29 06:04:15;;;;;;;0.10;0.10;;;;;;;22.23;51.04;101085.25;5102120;28;20051;-42
2022/06/29 06:06:41;;;;;;;0.10;0.10;;;;;;;22.24;51.13;101083.31;5125720;27;20063;-42
2022/06/29 06:09:07;;;;;;;0.10;0.10;;;;;;;22.23;51.23;101078.88;5125255;27;20039;-41
2022/06/29 06:11:34;;;;;;;0.15;0.15;;;;;;;22.24;50.82;101073.03;5123241;27;20035;-40
2022/06/29 06:14:00;;;;;;;0.10;0.10;;;;;;;22.24;50.81;101072.22;5115677;27;20479;-40
2022/06/29 06:16:26;;;;;;;0.10;0.10;;;;;;;22.24;50.61;101070.25;5124981;27;20064;-40
2022/06/29 06:19:07;;;;;;;0.10;0.10;;;;;;;22.24;50.86;101073.03;5125395;27;20045;-41
2022/06/29 06:21:35;;;;;;;0.10;0.10;;;;;;;22.24;51.07;101063.91;5111282;27;20035;-44
2022/06/29 06:24:00;;;;;;;0.10;0.10;;;;;;;22.22;51.09;101061.41;5107037;28;20084;-41
2022/06/29 06:26:26;;;;;;;0.10;0.10;;;;;;;22.22;51.41;101061.41;5119801;27;20039;-40
2022/06/29 06:28:52;;;;;;;0.10;0.10;;;;;;;22.23;51.26;101067.78;5124387;27;20071;-42
2022/06/29 06:31:22;;;;;;;0.10;0.10;;;;;;;22.23;51.18;101065.81;5107916;28;20043;-41
2022/06/29 06:33:47;;;;;;;0.10;0.10;;;;;;;22.24;51.27;101058.34;5124283;27;20445;-42
2022/06/29 06:36:13;;;;;;;0.10;0.10;;;;;;;22.22;51.28;101057.81;5127958;27;20451;-41
2022/06/29 06:38:39;;;;;;;0.10;0.10;;;;;;;22.22;51.32;101064.19;5124363;27;20073;-42
2022/06/29 06:41:35;;;;;;;0.10;0.10;;;;;;;22.21;51.26;101061.72;5126705;27;20059;-40
2022/06/29 06:43:52;;;;;;;0.10;0.10;;;;;;;22.22;51.28;101075.28;5113394;27;20446;-42
2022/06/29 06:46:18;;;;;;;0.10;0.10;;;;;;;22.21;51.02;101078.34;5125340;27;20117;-42
2022/06/29 06:48:44;;;;;;;0.10;0.10;;;;;;;22.24;51.26;101075.00;5102853;27;20478;-42
2022/06/29 06:51:11;;;;;;;0.10;0.10;;;;;;;22.24;51.23;101075.00;5126100;27;20068;-42
2022/06/29 06:53:37;;;;;;;0.10;0.10;;;;;;;22.23;51.31;101085.25;5111066;27;20092;-43
2022/06/29 06:56:03;;;;;;;0.10;0.10;;;;;;;22.23;51.22;101087.19;5117134;27;20047;-40
2022/06/29 06:58:28;;;;;;;0.10;0.10;;;;;;;22.23;51.28;101088.00;5125755;27;20394;-40
2022/06/29 07:00:54;;;;;;;0.10;0.10;;;;;;;22.23;51.31;101087.19;5135780;27;20043;-42
2022/06/29 07:03:19;;;;;;;0.20;0.20;;;;;;;22.23;51.35;101089.97;5108277;27;20035;-43
2022/06/29 07:05:45;;;;;;;0.10;0.10;;;;;;;22.22;51.35;101082.78;5133861;27;20045;-42
2022/06/29 07:08:11;;;;;;;0.10;0.10;;;;;;;22.22;51.23;101085.53;5124884;27;20048;-43
2022/06/29 07:10:36;;;;;;;0.10;0.10;;;;;;;22.21;51.24;101084.72;5126875;27;20321;-41
2022/06/29 07:13:02;;;;;;;0.10;0.10;;;;;;;22.22;51.29;101078.03;5126188;27;20057;-43
2022/06/29 07:15:28;;;;;;;0.10;0.10;;;;;;;22.22;51.28;101078.03;5124354;27;20462;-42
2022/06/29 07:17:54;;;;;;;0.10;0.10;;;;;;;22.22;51.21;101077.22;5124355;27;20067;-42
2022/06/29 07:20:20;;;;;;;0.10;0.10;;;;;;;22.22;51.33;101069.72;5133898;27;20066;-42
2022/06/29 07:22:46;;;;;;;0.10;0.10;;;;;;;22.21;51.28;101070.84;5126424;27;20367;-42
2022/06/29 07:25:11;;;;;;;0.10;0.10;;;;;;;22.23;51.48;101073.31;5120199;27;20047;-41
2022/06/29 07:27:37;;;;;;;0.10;0.10;;;;;;;22.22;51.30;101071.69;5124899;27;20382;-41
2022/06/29 07:30:04;;;;;;;0.10;0.10;;;;;;;22.22;51.28;101078.03;5110292;27;20043;-41
2022/06/29 07:32:30;;;;;;;0.10;0.10;;;;;;;22.22;51.21;101083.59;5131089;27;20488;-40
2022/06/29 07:34:56;;;;;;;0.10;0.10;;;;;;;22.22;51.31;101086.38;5106669;28;20489;-42
2022/06/29 07:37:22;;;;;;;0.10;0.10;;;;;;;22.22;51.34;101080.81;5129248;27;20504;-40
2022/06/29 07:39:48;;;;;;;0.10;0.10;;;;;;;22.23;51.31;101084.41;5107703;27;20075;-42
2022/06/29 07:42:35;;;;;;;0.10;0.10;;;;;;;22.21;51.27;101081.94;5107641;27;20055;-42
2022/06/29 07:45:02;;;;;;;0.10;0.10;;;;;;;22.22;51.36;101082.78;5123098;27;20086;-42
2022/06/29 07:47:28;;;;;;;0.20;0.20;;;;;;;22.21;51.34;101072.81;5125863;27;20073;-42
2022/06/29 07:49:54;;;;;;;0.10;0.10;;;;;;;22.23;51.32;101076.09;5132365;27;20043;-44
2022/06/29 07:52:20;;;;;;;0.10;0.10;;;;;;;22.22;51.31;101075.28;5128561;27;20065;-44
2022/06/29 07:54:46;;;;;;;0.10;0.10;;;;;;;22.22;51.32;101068.91;5125010;27;20073;-40
2022/06/29 07:57:11;;;;;;;0.10;0.10;;;;;;;22.22;51.29;101077.22;5127365;27;20043;-43
2022/06/29 07:59:42;;;;;;;0.10;0.10;;;;;;;22.22;51.30;101080.00;5124939;27;20043;-43
2022/06/29 08:02:08;;;;;;;0.10;0.10;;;;;;;22.21;51.30;101076.41;5123649;27;20066;-44
2022/06/29 08:04:33;;;;;;;0.10;0.10;;;;;;;22.22;51.26;101078.03;5118607;27;20053;-42
2022/06/29 08:07:19;;;;;;;0.10;0.10;;;;;;;22.21;51.28;101076.41;5106884;27;20043;-42
2022/06/29 08:09:45;;;;;;;0.10;0.10;;;;;;;22.22;51.24;101074.44;5126322;27;20077;-41
2022/06/29 08:12:10;;;;;;;0.10;0.10;;;;;;;22.23;51.27;101078.88;5125327;27;20421;-45
2022/06/29 08:14:36;;;;;;;0.10;0.10;;;;;;;22.21;51.30;101076.41;5123820;27;20043;-43
2022/06/29 08:17:02;;;;;;;0.10;0.10;;;;;;;22.21;51.30;101081.94;5130226;27;20208;-40
2022/06/29 08:19:27;;;;;;;0.10;0.10;;;;;;;22.21;51.01;101081.94;5129528;27;20352;-44
2022/06/29 08:21:53;;;;;;;0.10;0.10;;;;;;;22.20;51.41;101077.53;5129285;27;20392;-44
2022/06/29 08:24:19;;;;;;;0.10;0.10;;;;;;;22.21;51.27;101078.34;5128072;27;20051;-42
2022/06/29 08:26:44;;;;;;;0.10;0.10;;;;;;;22.21;50.91;101075.59;5129230;27;20134;-40
2022/06/29 08:29:31;;;;;;;0.10;0.10;;;;;;;22.21;51.10;101081.13;5115502;27;20137;-43
2022/06/29 08:31:56;;;;;;;0.10;0.10;;;;;;;22.21;51.21;101070.03;5126285;27;20074;-44
2022/06/29 08:34:26;;;;;;;0.10;0.10;;;;;;;22.21;51.02;101070.03;5125768;27;20051;-43
2022/06/29 08:36:52;;;;;;;0.10;0.10;;;;;;;22.21;51.21;101078.34;5127281;27;20405;-43
2022/06/29 08:39:17;;;;;;;0.10;0.10;;;;;;;22.20;51.02;101069.22;5130585;27;20035;-41
2022/06/29 08:41:43;;;;;;;0.10;0.10;;;;;;;22.21;50.97;101072.81;5127940;27;20465;-41
2022/06/29 08:44:09;;;;;;;0.10;0.10;;;;;;;22.23;50.90;101076.09;5126845;27;20401;-43
2022/06/29 08:46:35;;;;;;;0.10;0.10;;;;;;;22.21;51.02;101079.19;5127798;27;20042;-42
2022/06/29 08:49:03;;;;;;;0.10;0.10;;;;;;;22.21;51.21;101078.34;5124928;27;20134;-42
2022/06/29 08:51:33;;;;;;;0.10;0.10;;;;;;;22.21;51.04;101072.81;5123586;27;20047;-42
2022/06/29 08:54:02;;;;;;;0.10;0.10;;;;;;;22.20;51.03;101071.97;5113419;27;20073;-43
2022/06/29 08:56:28;;;;;;;0.10;0.10;;;;;;;22.21;51.02;101073.63;5125256;27;20403;-42
2022/06/29 08:58:54;;;;;;;0.10;0.10;;;;;;;22.22;51.21;101085.53;5126978;27;20042;-43
2022/06/29 09:01:20;;;;;;;0.10;0.10;;;;;;;22.22;51.18;101080.00;5119998;27;20043;-41
2022/06/29 09:03:46;;;;;;;0.10;0.10;;;;;;;22.21;51.10;101075.59;5123904;27;20043;-44
2022/06/29 09:06:11;;;;;;;0.20;0.20;;;;;;;22.22;51.17;101088.31;5130265;27;20043;-42
2022/06/29 09:08:37;;;;;;;0.10;0.10;;;;;;;22.21;51.10;101084.72;5118822;27;20390;-44
2022/06/29 09:11:24;;;;;;;0.10;0.10;;;;;;;22.22;51.15;101088.31;5122696;27;20055;-42
2022/06/29 09:14:11;;;;;;;0.10;0.10;;;;;;;22.21;51.22;101090.28;5101648;27;20082;-45
2022/06/29 09:16:58;;;;;;;0.10;0.10;;;;;;;22.21;51.03;101092.22;5117460;27;20453;-42
2022/06/29 09:19:27;;;;;;;0.10;0.10;;;;;;;22.21;51.08;101095.81;5109335;28;20595;-42
2022/06/29 09:21:54;;;;;;;0.10;0.10;;;;;;;22.23;51.08;101103.84;5131258;27;20074;-42
2022/06/29 09:24:23;;;;;;;0.10;0.10;;;;;;;22.22;51.10;101099.41;5107123;27;20087;-38
2022/06/29 09:26:52;;;;;;;0.10;0.10;;;;;;;22.21;51.16;101101.38;5125414;27;20588;-43
2022/06/29 09:29:20;;;;;;;0.10;0.10;;;;;;;22.22;51.05;101099.41;5120710;27;20475;-42
2022/06/29 09:32:07;;;;;;;0.13;0.13;;;;;;;22.22;51.12;101093.88;5126684;27;20482;-39
2022/06/29 09:34:36;;;;;;;0.10;0.10;;;;;;;22.21;51.13;101090.28;5107889;27;20079;-41
2022/06/29 09:37:03;;;;;;;0.10;0.10;;;;;;;22.21;51.19;101087.50;5102374;28;20075;-40
2022/06/29 09:39:47;;;;;;;0.10;0.10;;;;;;;22.23;51.10;101089.97;5124388;27;20169;-42
2022/06/29 09:42:16;;;;;;;0.10;0.10;;;;;;;22.21;51.24;101093.03;5124935;27;20074;-41
2022/06/29 09:44:42;;;;;;;0.10;0.10;;;;;;;22.21;51.22;101090.28;5127705;27;20082;-42
2022/06/29 09:47:12;;;;;;;0.10;0.10;;;;;;;22.21;51.18;101079.19;5127130;27;20070;-41
2022/06/29 09:49:38;;;;;;;0.10;0.10;;;;;;;22.22;51.10;101083.59;5120493;27;20093;-42
2022/06/29 09:52:05;;;;;;;0.10;0.10;;;;;;;22.21;51.16;101083.91;5120678;27;20079;-42
2022/06/29 09:54:36;;;;;;;0.10;0.10;;;;;;;22.25;51.03;101080.22;5124651;27;20043;-40
2022/06/29 09:57:02;;;;;;;0.10;0.10;;;;;;;22.25;51.14;101073.88;5102605;27;20079;-42
2022/06/29 10:02:35;;;;;;;0.20;0.20;;;;;;;22.15;51.31;101071.19;5113716;27;20075;-41
2022/06/29 10:05:04;;;;;;;0.10;0.10;;;;;;;21.91;51.99;101074.81;5109209;27;20046;-41
2022/06/29 10:07:30;;;;;;;0.10;0.10;;;;;;;21.82;52.28;101068.28;5106030;27;20474;-40
2022/06/29 10:09:58;;;;;;;0.10;0.10;;;;;;;21.78;52.46;101068.03;5113168;27;20128;-43
2022/06/29 10:15:32;;;;;;;0.10;0.10;;;;;;;21.73;52.65;101057.00;5109438;28;20043;-43
2022/06/29 10:18:09;;;;;;;0.10;0.10;;;;;;;21.78;52.51;101064.44;5130286;27;20050;-43
2022/06/29 10:20:42;;;;;;;0.10;0.10;;;;;;;21.83;52.49;101075.47;5123355;27;20048;-42
2022/06/29 10:23:08;;;;;;;0.10;0.10;;;;;;;21.81;52.47;101068.56;5129467;27;20079;-43
2022/06/29 10:25:35;;;;;;;0.10;0.10;;;;;;;21.81;52.67;101076.88;5129049;27;20047;-45
2022/06/29 10:28:13;;;;;;;0.10;0.10;;;;;;;21.73;53.00;101075.59;5121845;27;20157;-40
2022/06/29 10:30:38;;;;;;;0.10;0.10;;;;;;;21.74;52.91;101078.06;5104684;27;20075;-44
2022/06/29 10:33:39;;;;;;;0.10;0.10;;;;;;;21.73;53.12;101070.88;5126499;27;20039;-43
2022/06/29 10:36:07;;;;;;;0.10;0.10;;;;;;;21.72;52.99;101074.75;5101303;28;20056;-43
2022/06/29 10:44:55;;;;;;;0.10;0.10;;;;;;;21.80;52.88;101067.72;5142982;27;20427;-42
2022/06/29 10:47:21;;;;;;;0.10;0.10;;;;;;;21.82;52.91;101061.91;5147434;27;20053;-43
2022/06/29 10:49:46;;;;;;;0.10;0.10;;;;;;;21.80;52.91;101064.94;5167037;27;20126;-44
2022/06/29 10:52:12;;;;;;;0.10;0.10;;;;;;;21.79;53.11;101057.75;5162694;27;20038;-42
2022/06/29 10:54:38;;;;;;;0.10;0.10;;;;;;;21.78;52.83;101050.56;5164476;27;20492;-44
2022/06/29 10:57:04;;;;;;;0.10;0.10;;;;;;;21.79;53.11;101057.75;5162411;27;20038;-42
2022/06/29 10:59:35;;;;;;;0.10;0.10;;;;;;;21.87;52.76;101054.34;5165793;27;20077;-45
2022/06/29 11:02:11;;;;;;;0.10;0.10;;;;;;;21.84;52.89;101049.38;5145456;27;20053;-43
2022/06/29 11:04:38;;;;;;;0.10;0.10;;;;;;;21.79;52.96;101047.50;5146007;27;20054;-41
2022/06/29 11:12:47;;;;;;;0.10;0.10;;;;;;;21.80;53.10;101034.47;5148853;27;20074;-41
2022/06/29 11:17:59;;;;;;;0.10;0.10;;;;;;;21.76;53.25;101031.47;5147649;27;20050;-42
2022/06/29 11:20:24;;;;;;;0.10;0.10;;;;;;;21.82;53.04;101032.22;5164837;27;20064;-39
2022/06/29 11:22:51;;;;;;;0.10;0.10;;;;;;;22.00;52.38;101025.06;5161996;27;20361;-39
2022/06/29 11:25:17;;;;;;;0.10;0.10;;;;;;;22.06;52.03;101029.41;5166975;27;20473;-41
2022/06/29 11:27:43;;;;;;;0.10;0.10;;;;;;;22.09;51.95;101028.00;5163771;27;20074;-41
2022/06/29 11:30:10;;;;;;;0.10;0.10;;;;;;;22.13;51.89;101024.34;5163355;27;20050;-40
2022/06/29 11:32:39;;;;;;;0.10;0.10;;;;;;;22.16;51.81;101006.31;5142925;27;20121;-40
2022/06/29 11:35:05;;;;;;;;;;;;;;;22.16;51.75;101009.09;5161372;27;20050;-40
2022/06/29 11:37:37;;;;;;;0.10;0.10;;;;;;;22.15;51.75;101010.19;5146016;27;19919;-40
2022/06/29 11:40:04;;;;;;;0.10;0.10;;;;;;;22.16;51.73;101012.69;5145501;27;20035;-40
2022/06/29 11:43:04;;;;;;;0.10;0.10;;;;;;;22.16;51.71;101006.31;5148297;27;20405;-40
2022/06/29 11:45:18;;;;;;;0.10;0.10;;;;;;;22.17;51.66;101006.00;5098631;27;20066;-40
2022/06/29 11:47:59;;;;;;;0.20;0.20;;;;;;;22.18;51.63;100990.19;5142080;27;20050;-41
2022/06/29 11:50:25;;;;;;;0.10;0.10;;;;;;;22.18;51.65;100985.44;5142331;27;20202;-39